Time,TemperatureF,DewpointF,PressureIn,WindDirection,WindDirectionDegrees,WindSpeedMPH,WindSpeedGustMPH,Humidity,HourlyPrecipIn,Conditions,Clouds,dailyrainin,SolarRadiationWatts/m^2,SoftwareType,DateUTC
2013-07-03 00:02:00,73.0,73.0,29.77,SE,144,3.0,7.0,100,0.01,,,0.26,0.000000,,2013-07-03 04:02:00,
2013-07-03 00:11:00,73.0,73.0,29.77,SE,144,3.0,7.0,100,0.01,,,0.26,0.000000,,2013-07-03 04:11:00,
2013-07-03 00:43:00,73.0,73.0,29.77,SSE,147,5.0,11.0,100,0.00,,,0.26,0.000000,,2013-07-03 04:43:00,
2013-07-03 00:52:00,73.0,73.0,29.77,SSE,147,5.0,11.0,100,0.00,,,0.26,0.000000,,2013-07-03 04:52:00,
2013-07-03 01:02:00,73.0,73.0,29.77,SSE,147,5.0,11.0,100,0.00,,,0.26,0.000000,,2013-07-03 05:02:00,
2013-07-03 01:11:00,73.0,73.0,29.77,SSE,147,5.0,11.0,100,0.00,,,0.26,0.000000,,2013-07-03 05:11:00,
2013-07-03 01:48:00,72.0,72.0,29.76,SE,144,5.0,10.0,100,0.00,,,0.26,0.000000,,2013-07-03 05:48:00,
2013-07-03 02:01:00,72.0,72.0,29.76,SE,144,5.0,10.0,100,0.00,,,0.26,0.000000,,2013-07-03 06:01:00,
2013-07-03 02:08:00,72.0,72.0,29.76,SE,144,5.0,10.0,100,0.00,,,0.26,0.000000,,2013-07-03 06:08:00,
2013-07-03 02:15:00,72.0,72.0,29.76,SE,144,5.0,10.0,100,0.00,,,0.26,0.000000,,2013-07-03 06:15:00,
2013-07-03 02:16:00,74.0,74.0,29.75,South,172,5.0,11.0,100,0.00,,,0.26,0.000000,,2013-07-03 06:16:00,
2013-07-03 02:58:00,74.0,74.0,29.75,South,172,5.0,11.0,100,0.00,,,0.26,0.000000,,2013-07-03 06:58:00,
2013-07-03 03:16:00,74.0,74.0,29.75,South,171,5.0,11.0,100,0.00,,,0.26,0.000000,,2013-07-03 07:16:00,
2013-07-03 03:48:00,74.0,74.0,29.75,South,171,5.0,11.0,100,0.00,,,0.26,0.000000,,2013-07-03 07:48:00,
2013-07-03 04:03:00,74.0,74.0,29.75,South,171,5.0,11.0,100,0.00,,,0.26,0.000000,,2013-07-03 08:03:00,
2013-07-03 04:11:00,74.0,74.0,29.75,South,171,5.0,11.0,100,0.00,,,0.26,0.000000,,2013-07-03 08:11:00,
2013-07-03 04:16:00,74.0,74.0,29.75,SSE,161,4.0,13.0,100,0.00,,,0.26,0.000000,,2013-07-03 08:16:00,
2013-07-03 04:48:00,74.0,74.0,29.75,SSE,161,4.0,13.0,100,0.00,,,0.26,0.000000,,2013-07-03 08:48:00,
2013-07-03 04:58:00,74.0,74.0,29.75,SSE,161,4.0,13.0,100,0.00,,,0.26,0.000000,,2013-07-03 08:58:00,
2013-07-03 05:08:00,74.0,74.0,29.75,SSE,161,4.0,13.0,100,0.00,,,0.26,0.000000,,2013-07-03 09:08:00,
2013-07-03 05:16:00,74.0,74.0,29.76,South,179,6.0,14.0,100,0.24,,,0.50,0.000000,,2013-07-03 09:16:00,
2013-07-03 05:48:00,74.0,74.0,29.76,South,179,6.0,14.0,100,0.24,,,0.50,0.000000,,2013-07-03 09:48:00,
2013-07-03 05:58:00,74.0,74.0,29.76,South,179,6.0,14.0,100,0.24,,,0.50,0.000000,,2013-07-03 09:58:00,
2013-07-03 06:47:00,74.0,74.0,29.78,South,178,5.0,11.0,100,0.04,,,0.54,2.000000,,2013-07-03 10:47:00,
2013-07-03 06:57:00,74.0,74.0,29.78,South,178,5.0,11.0,100,0.04,,,0.54,2.000000,,2013-07-03 10:57:00,
2013-07-03 07:06:00,74.0,74.0,29.78,South,178,5.0,11.0,100,0.04,,,0.54,2.000000,,2013-07-03 11:06:00,
2013-07-03 07:16:00,75.0,75.0,29.79,SSE,162,4.0,10.0,100,0.00,,,0.54,43.000000,,2013-07-03 11:16:00,
2013-07-03 07:46:00,75.0,75.0,29.79,SSE,162,4.0,10.0,100,0.00,,,0.54,43.000000,,2013-07-03 11:46:00,
2013-07-03 07:59:00,75.0,75.0,29.79,SSE,162,4.0,10.0,100,0.00,,,0.54,43.000000,,2013-07-03 11:59:00,
2013-07-03 08:08:00,75.0,75.0,29.79,SSE,162,4.0,10.0,100,0.00,,,0.54,43.000000,,2013-07-03 12:08:00,
2013-07-03 08:16:00,76.0,76.0,29.81,South,176,4.0,15.0,100,0.01,,,0.55,101.000000,,2013-07-03 12:16:00,
2013-07-03 08:47:00,76.0,76.0,29.81,South,176,4.0,15.0,100,0.01,,,0.55,101.000000,,2013-07-03 12:47:00,
2013-07-03 08:59:00,76.0,76.0,29.81,South,176,4.0,15.0,100,0.01,,,0.55,101.000000,,2013-07-03 12:59:00,
2013-07-03 09:56:00,77.0,77.0,29.82,SSE,168,4.0,9.0,99,0.00,,,0.55,263.000000,,2013-07-03 13:56:00,
2013-07-03 10:07:00,77.0,77.0,29.82,SSE,168,4.0,9.0,99,0.00,,,0.55,263.000000,,2013-07-03 14:07:00,
2013-07-03 10:15:00,77.0,77.0,29.82,SSE,168,4.0,9.0,99,0.00,,,0.55,263.000000,,2013-07-03 14:15:00,
2013-07-03 10:48:00,76.0,76.0,29.82,South,180,3.0,37.0,100,0.00,,,0.53,389.000000,,2013-07-03 14:48:00,
2013-07-03 10:56:00,76.0,76.0,29.82,South,180,3.0,37.0,100,0.00,,,0.53,389.000000,,2013-07-03 14:56:00,
2013-07-03 11:06:00,76.0,76.0,29.82,South,180,3.0,37.0,100,0.00,,,0.53,389.000000,,2013-07-03 15:06:00,
2013-07-03 11:16:00,82.0,77.0,29.82,South,180,6.0,12.0,85,0.00,,,0.52,508.000000,,2013-07-03 15:16:00,
2013-07-03 11:49:00,82.0,77.0,29.82,South,180,6.0,12.0,85,0.00,,,0.52,508.000000,,2013-07-03 15:49:00,
2013-07-03 12:16:00,84.0,75.0,29.81,SSE,162,6.0,16.0,75,0.00,,,0.41,848.000000,,2013-07-03 16:16:00,
2013-07-03 12:47:00,84.0,75.0,29.81,SSE,162,6.0,16.0,75,0.00,,,0.41,848.000000,,2013-07-03 16:47:00,
2013-07-03 13:01:00,84.0,75.0,29.81,SSE,162,6.0,16.0,75,0.00,,,0.41,848.000000,,2013-07-03 17:01:00,
2013-07-03 13:09:00,84.0,75.0,29.81,SSE,162,6.0,16.0,75,0.00,,,0.41,848.000000,,2013-07-03 17:09:00,
2013-07-03 13:16:00,86.0,76.0,29.81,SSE,148,7.0,17.0,72,0.00,,,0.40,552.000000,,2013-07-03 17:16:00,
2013-07-03 13:50:00,86.0,76.0,29.81,SSE,148,7.0,17.0,72,0.00,,,0.40,552.000000,,2013-07-03 17:50:00,
2013-07-03 13:56:00,86.0,76.0,29.81,SSE,148,7.0,17.0,72,0.00,,,0.40,552.000000,,2013-07-03 17:56:00,
2013-07-03 14:08:00,86.0,76.0,29.81,SSE,148,7.0,17.0,72,0.00,,,0.40,552.000000,,2013-07-03 18:08:00,
2013-07-03 14:16:00,72.0,72.0,29.83,WNW,282,9.0,25.0,99,0.17,,,0.57,242.000000,,2013-07-03 18:16:00,
2013-07-03 14:47:00,72.0,72.0,29.83,WNW,282,9.0,25.0,99,0.17,,,0.57,242.000000,,2013-07-03 18:47:00,
2013-07-03 14:59:00,72.0,72.0,29.83,WNW,282,9.0,25.0,99,0.17,,,0.57,242.000000,,2013-07-03 18:59:00,
2013-07-03 15:05:00,72.0,72.0,29.83,WNW,282,9.0,25.0,99,0.17,,,0.57,242.000000,,2013-07-03 19:05:00,
2013-07-03 15:49:00,74.0,74.0,29.81,SSE,154,2.0,12.0,100,0.00,,,0.56,144.000000,,2013-07-03 19:49:00,
2013-07-03 15:58:00,74.0,74.0,29.81,SSE,154,2.0,12.0,100,0.00,,,0.56,144.000000,,2013-07-03 19:58:00,
2013-07-03 16:06:00,74.0,74.0,29.81,SSE,154,2.0,12.0,100,0.00,,,0.56,144.000000,,2013-07-03 20:06:00,
2013-07-03 16:47:00,72.0,72.0,29.80,South,190,3.0,10.0,100,0.04,,,0.58,46.000000,,2013-07-03 20:47:00,
2013-07-03 16:57:00,72.0,72.0,29.80,South,190,3.0,10.0,100,0.04,,,0.58,46.000000,,2013-07-03 20:57:00,
2013-07-03 17:06:00,72.0,72.0,29.80,South,190,3.0,10.0,100,0.04,,,0.58,46.000000,,2013-07-03 21:06:00,
2013-07-03 17:14:00,72.0,72.0,29.80,South,190,3.0,10.0,100,0.04,,,0.58,46.000000,,2013-07-03 21:14:00,
2013-07-03 17:45:00,81.0,77.0,29.79,NNW,347,2.0,7.0,87,0.00,,,0.57,431.000000,,2013-07-03 21:45:00,
2013-07-03 17:55:00,81.0,77.0,29.79,NNW,347,2.0,7.0,87,0.00,,,0.57,431.000000,,2013-07-03 21:55:00,
2013-07-03 18:06:00,81.0,77.0,29.79,NNW,347,2.0,7.0,87,0.00,,,0.57,431.000000,,2013-07-03 22:06:00,
2013-07-03 18:47:00,82.0,76.0,29.79,SE,145,4.0,8.0,81,0.00,,,0.55,463.000000,,2013-07-03 22:47:00,
2013-07-03 18:57:00,82.0,76.0,29.79,SE,145,4.0,8.0,81,0.00,,,0.55,463.000000,,2013-07-03 22:57:00,
2013-07-03 19:07:00,82.0,76.0,29.79,SE,145,4.0,8.0,81,0.00,,,0.55,463.000000,,2013-07-03 23:07:00,
2013-07-03 19:14:00,82.0,76.0,29.79,SE,145,4.0,8.0,81,0.00,,,0.55,463.000000,,2013-07-03 23:14:00,
2013-07-03 19:16:00,81.0,76.0,29.80,SE,142,3.0,10.0,84,0.00,,,0.55,277.000000,,2013-07-03 23:16:00,
2013-07-03 19:46:00,81.0,76.0,29.80,SE,142,3.0,10.0,84,0.00,,,0.55,277.000000,,2013-07-03 23:46:00,
2013-07-03 19:56:00,81.0,76.0,29.80,SE,142,3.0,10.0,84,0.00,,,0.55,277.000000,,2013-07-03 23:56:00,
2013-07-03 20:07:00,81.0,76.0,29.80,SE,142,3.0,10.0,84,0.00,,,0.55,277.000000,,2013-07-04 00:07:00,
2013-07-03 20:16:00,76.0,76.0,29.81,SE,136,3.0,13.0,100,0.02,,,0.55,73.000000,,2013-07-04 00:16:00,
2013-07-03 20:51:00,76.0,76.0,29.81,SE,136,3.0,13.0,100,0.02,,,0.55,73.000000,,2013-07-04 00:51:00,
2013-07-03 20:57:00,76.0,76.0,29.81,SE,136,3.0,13.0,100,0.02,,,0.55,73.000000,,2013-07-04 00:57:00,
2013-07-03 21:06:00,76.0,76.0,29.81,SE,136,3.0,13.0,100,0.02,,,0.55,73.000000,,2013-07-04 01:06:00,
2013-07-03 21:47:00,73.0,73.0,29.82,ESE,121,2.0,7.0,100,0.01,,,0.56,2.000000,,2013-07-04 01:47:00,
2013-07-03 21:57:00,73.0,73.0,29.82,ESE,121,2.0,7.0,100,0.01,,,0.56,2.000000,,2013-07-04 01:57:00,
2013-07-03 22:15:00,73.0,73.0,29.82,ESE,121,2.0,7.0,100,0.01,,,0.56,2.000000,,2013-07-04 02:15:00,
2013-07-03 22:49:00,74.0,74.0,29.83,SSE,158,4.0,10.0,100,0.00,,,0.54,0.000000,,2013-07-04 02:49:00,
2013-07-03 23:05:00,74.0,74.0,29.83,SSE,158,4.0,10.0,100,0.00,,,0.54,0.000000,,2013-07-04 03:05:00,
2013-07-03 23:15:00,74.0,74.0,29.83,SSE,158,4.0,10.0,100,0.00,,,0.54,0.000000,,2013-07-04 03:15:00,
2013-07-03 23:46:00,73.0,73.0,29.83,SE,144,4.0,9.0,100,0.00,,,0.53,0.000000,,2013-07-04 03:46:00,
2013-07-03 23:57:00,73.0,73.0,29.83,SE,144,4.0,9.0,100,0.00,,,0.53,0.000000,,2013-07-04 03:57:00,